Sanger, Texas
Current Conditions -  °F | °C
As of 6:53 PM on Thursday 27 Nov 2014 (Local Time) from KDTO Reporting Station
Clear Clear  
Wind Chill: 48°   Ceiling: Unl
Heat Index: 48°   Visibility: 10mi
Dew Point: 22°   Wind: 0mph
Humidity: 36%   Direction: NA
Pressure: 30.39"   Gusts: NA
Location:  33.36°N, 97.17°W
Report Text: KDTO 280053Z 00000KT 10SM CLR 09/M06 A3039 RMK AO2 SLP291 T00891056
Loading
Personal Weather Stations






























Interactive Weather Map New forecast layout! Learn more

10-Day Weather Forecast

Advertisements
Track Severe Weather on mobile